sensor_id;sensor_type;location;lat;lon;timestamp;pressure;altitude;pressure_sealevel;temperature;humidity
5777;BME280;2914;42.668;23.346;2023-06-01T00:00:09;94666.65;;;17.59;100.00
5777;BME280;2914;42.668;23.346;2023-06-01T00:02:40;94675.94;;;17.63;100.00
5777;BME280;2914;42.668;23.346;2023-06-01T00:05:10;94671.42;;;17.63;100.00
5777;BME280;2914;42.668;23.346;2023-06-01T00:18:56;94659.41;;;17.97;99.57
5777;BME280;2914;42.668;23.346;2023-06-01T00:21:26;94655.59;;;17.96;98.65
5777;BME280;2914;42.668;23.346;2023-06-01T00:23:56;94658.65;;;17.93;98.70
5777;BME280;2914;42.668;23.346;2023-06-01T00:26:25;94660.30;;;17.90;98.74
5777;BME280;2914;42.668;23.346;2023-06-01T00:28:54;94658.00;;;17.87;98.73
5777;BME280;2914;42.668;23.346;2023-06-01T00:31:23;94662.71;;;17.85;99.33
5777;BME280;2914;42.668;23.346;2023-06-01T00:33:52;94665.87;;;17.84;99.55
5777;BME280;2914;42.668;23.346;2023-06-01T00:36:22;94667.91;;;17.82;99.61
5777;BME280;2914;42.668;23.346;2023-06-01T00:38:51;94670.19;;;17.70;99.66
5777;BME280;2914;42.668;23.346;2023-06-01T00:41:20;94669.42;;;17.66;99.33
5777;BME280;2914;42.668;23.346;2023-06-01T00:43:49;94666.65;;;17.59;99.65
5777;BME280;2914;42.668;23.346;2023-06-01T00:46:18;94661.89;;;17.50;100.00
5777;BME280;2914;42.668;23.346;2023-06-01T00:48:47;94667.78;;;17.45;100.00
5777;BME280;2914;42.668;23.346;2023-06-01T00:51:17;94664.63;;;17.42;100.00
5777;BME280;2914;42.668;23.346;2023-06-01T00:53:47;94662.19;;;17.36;100.00
5777;BME280;2914;42.668;23.346;2023-06-01T00:56:17;94665.05;;;17.16;100.00
5777;BME280;2914;42.668;23.346;2023-06-01T00:58:47;94661.00;;;17.01;100.00
5777;BME280;2914;42.668;23.346;2023-06-01T01:01:15;94659.09;;;16.86;100.00
5777;BME280;2914;42.668;23.346;2023-06-01T01:11:15;94659.78;;;17.07;100.00
5777;BME280;2914;42.668;23.346;2023-06-01T01:13:47;94667.26;;;17.12;100.00
5777;BME280;2914;42.668;23.346;2023-06-01T01:16:22;94668.77;;;17.10;100.00
5777;BME280;2914;42.668;23.346;2023-06-01T01:25:44;94669.89;;;17.16;100.00
5777;BME280;2914;42.668;23.346;2023-06-01T01:28:31;94681.88;;;17.16;100.00
5777;BME280;2914;42.668;23.346;2023-06-01T01:31:03;94681.95;;;17.08;100.00
5777;BME280;2914;42.668;23.346;2023-06-01T01:33:34;94677.53;;;16.96;99.83
5777;BME280;2914;42.668;23.346;2023-06-01T01:36:05;94675.44;;;16.60;99.58
5777;BME280;2914;42.668;23.346;2023-06-01T01:38:36;94680.04;;;16.66;99.96
5777;BME280;2914;42.668;23.346;2023-06-01T01:41:05;94682.52;;;16.68;100.00
5777;BME280;2914;42.668;23.346;2023-06-01T01:43:34;94682.75;;;16.58;100.00
5777;BME280;2914;42.668;23.346;2023-06-01T01:46:10;94684.06;;;16.62;100.00
5777;BME280;2914;42.668;23.346;2023-06-01T01:48:42;94681.55;;;16.65;100.00
5777;BME280;2914;42.668;23.346;2023-06-01T01:51:14;94679.91;;;16.59;100.00
5777;BME280;2914;42.668;23.346;2023-06-01T01:53:45;94678.07;;;16.64;100.00
5777;BME280;2914;42.668;23.346;2023-06-01T01:56:15;94669.75;;;16.63;100.00
5777;BME280;2914;42.668;23.346;2023-06-01T01:58:45;94677.89;;;16.66;100.00
5777;BME280;2914;42.668;23.346;2023-06-01T02:01:14;94679.53;;;16.71;100.00
5777;BME280;2914;42.668;23.346;2023-06-01T02:03:44;94681.83;;;16.74;100.00
5777;BME280;2914;42.668;23.346;2023-06-01T02:06:13;94680.98;;;16.77;100.00
5777;BME280;2914;42.668;23.346;2023-06-01T02:08:42;94676.95;;;16.82;100.00
5777;BME280;2914;42.668;23.346;2023-06-01T02:11:11;94676.27;;;16.84;100.00
5777;BME280;2914;42.668;23.346;2023-06-01T02:16:43;94675.66;;;16.77;100.00
5777;BME280;2914;42.668;23.346;2023-06-01T02:19:13;94681.98;;;16.76;100.00
5777;BME280;2914;42.668;23.346;2023-06-01T02:21:43;94677.80;;;16.78;100.00
5777;BME280;2914;42.668;23.346;2023-06-01T02:24:12;94681.65;;;16.75;100.00
5777;BME280;2914;42.668;23.346;2023-06-01T02:26:41;94679.02;;;16.71;100.00
5777;BME280;2914;42.668;23.346;2023-06-01T02:29:12;94680.22;;;16.65;100.00
5777;BME280;2914;42.668;23.346;2023-06-01T02:31:41;94687.42;;;16.60;100.00
5777;BME280;2914;42.668;23.346;2023-06-01T02:34:10;94688.41;;;16.59;100.00
5777;BME280;2914;42.668;23.346;2023-06-01T02:36:39;94687.11;;;16.55;100.00
5777;BME280;2914;42.668;23.346;2023-06-01T02:48:48;94690.81;;;16.73;100.00
5777;BME280;2914;42.668;23.346;2023-06-01T02:51:18;94687.39;;;16.64;100.00
5777;BME280;2914;42.668;23.346;2023-06-01T02:53:48;94688.05;;;16.62;100.00
5777;BME280;2914;42.668;23.346;2023-06-01T02:56:17;94684.67;;;16.45;100.00
5777;BME280;2914;42.668;23.346;2023-06-01T02:58:46;94685.75;;;16.27;100.00
5777;BME280;2914;42.668;23.346;2023-06-01T03:01:15;94686.27;;;16.27;100.00
5777;BME280;2914;42.668;23.346;2023-06-01T03:03:44;94689.55;;;16.33;100.00
5777;BME280;2914;42.668;23.346;2023-06-01T03:06:14;94690.42;;;16.30;100.00
5777;BME280;2914;42.668;23.346;2023-06-01T03:08:45;94685.91;;;16.30;100.00
5777;BME280;2914;42.668;23.346;2023-06-01T03:11:14;94686.89;;;16.33;100.00
5777;BME280;2914;42.668;23.346;2023-06-01T03:22:30;94698.05;;;16.64;100.00
5777;BME280;2914;42.668;23.346;2023-06-01T03:24:59;94704.21;;;16.60;100.00
5777;BME280;2914;42.668;23.346;2023-06-01T03:27:28;94702.13;;;16.48;100.00
5777;BME280;2914;42.668;23.346;2023-06-01T03:29:57;94708.81;;;16.43;100.00
5777;BME280;2914;42.668;23.346;2023-06-01T03:32:26;94701.20;;;16.36;100.00
5777;BME280;2914;42.668;23.346;2023-06-01T03:34:55;94698.19;;;16.39;100.00
5777;BME280;2914;42.668;23.346;2023-06-01T03:37:24;94697.33;;;16.39;100.00
5777;BME280;2914;42.668;23.346;2023-06-01T03:39:53;94692.52;;;16.38;100.00
5777;BME280;2914;42.668;23.346;2023-06-01T03:42:22;94693.85;;;16.38;100.00
5777;BME280;2914;42.668;23.346;2023-06-01T03:44:51;94690.66;;;16.43;100.00
5777;BME280;2914;42.668;23.346;2023-06-01T03:47:20;94690.53;;;16.40;100.00
5777;BME280;2914;42.668;23.346;2023-06-01T03:49:49;94695.87;;;16.36;100.00
5777;BME280;2914;42.668;23.346;2023-06-01T03:52:18;94700.16;;;16.41;100.00
5777;BME280;2914;42.668;23.346;2023-06-01T03:54:48;94698.82;;;16.41;100.00
5777;BME280;2914;42.668;23.346;2023-06-01T03:57:17;94696.31;;;16.44;100.00
5777;BME280;2914;42.668;23.346;2023-06-01T03:59:46;94698.78;;;16.50;100.00
5777;BME280;2914;42.668;23.346;2023-06-01T04:02:15;94705.09;;;16.57;100.00
5777;BME280;2914;42.668;23.346;2023-06-01T04:13:56;94700.23;;;16.84;100.00
5777;BME280;2914;42.668;23.346;2023-06-01T04:16:25;94710.78;;;17.04;100.00
5777;BME280;2914;42.668;23.346;2023-06-01T04:18:55;94701.51;;;17.19;100.00
5777;BME280;2914;42.668;23.346;2023-06-01T04:21:24;94710.37;;;17.35;100.00
5777;BME280;2914;42.668;23.346;2023-06-01T04:23:53;94712.44;;;17.48;100.00
5777;BME280;2914;42.668;23.346;2023-06-01T04:26:22;94708.77;;;17.63;100.00
5777;BME280;2914;42.668;23.346;2023-06-01T04:36:33;94710.25;;;18.30;100.00
5777;BME280;2914;42.668;23.346;2023-06-01T04:39:05;94718.11;;;18.42;100.00
5777;BME280;2914;42.668;23.346;2023-06-01T04:41:35;94716.96;;;18.52;100.00
5777;BME280;2914;42.668;23.346;2023-06-01T04:44:04;94712.84;;;18.60;100.00
5777;BME280;2914;42.668;23.346;2023-06-01T04:46:34;94714.45;;;18.65;100.00
5777;BME280;2914;42.668;23.346;2023-06-01T04:49:05;94712.73;;;18.68;100.00
5777;BME280;2914;42.668;23.346;2023-06-01T04:51:34;94720.51;;;18.63;100.00
5777;BME280;2914;42.668;23.346;2023-06-01T04:54:04;94723.18;;;18.63;99.56
5777;BME280;2914;42.668;23.346;2023-06-01T04:56:33;94724.63;;;18.55;99.51
5777;BME280;2914;42.668;23.346;2023-06-01T04:59:02;94724.48;;;18.52;100.00
5777;BME280;2914;42.668;23.346;2023-06-01T05:01:32;94725.44;;;18.55;100.00
5777;BME280;2914;42.668;23.346;2023-06-01T05:06:39;94728.79;;;18.53;99.93
5777;BME280;2914;42.668;23.346;2023-06-01T05:11:47;94737.95;;;18.44;98.46
5777;BME280;2914;42.668;23.346;2023-06-01T05:14:16;94733.81;;;18.26;98.57
5777;BME280;2914;42.668;23.346;2023-06-01T05:16:45;94734.87;;;18.21;99.29
5777;BME280;2914;42.668;23.346;2023-06-01T05:19:16;94733.63;;;18.28;100.00
5777;BME280;2914;42.668;23.346;2023-06-01T05:21:45;94730.17;;;18.38;100.00
5777;BME280;2914;42.668;23.346;2023-06-01T05:31:18;94722.79;;;19.03;100.00
5777;BME280;2914;42.668;23.346;2023-06-01T05:33:47;94727.05;;;18.97;99.09
5777;BME280;2914;42.668;23.346;2023-06-01T05:38:56;94731.18;;;18.89;97.45
5777;BME280;2914;42.668;23.346;2023-06-01T05:45:14;94724.31;;;18.90;97.87
5777;BME280;2914;42.668;23.346;2023-06-01T05:47:43;94725.23;;;18.97;99.17
5777;BME280;2914;42.668;23.346;2023-06-01T05:50:13;94724.13;;;19.13;99.79
5777;BME280;2914;42.668;23.346;2023-06-01T05:52:42;94721.53;;;19.20;98.69
5777;BME280;2914;42.668;23.346;2023-06-01T05:55:11;94720.38;;;19.29;98.08
5777;BME280;2914;42.668;23.346;2023-06-01T05:57:40;94717.31;;;19.43;98.60
5777;BME280;2914;42.668;23.346;2023-06-01T06:00:11;94726.00;;;19.63;99.03
5777;BME280;2914;42.668;23.346;2023-06-01T06:02:41;94722.58;;;19.80;98.69
5777;BME280;2914;42.668;23.346;2023-06-01T06:05:10;94730.18;;;19.94;95.88
5777;BME280;2914;42.668;23.346;2023-06-01T06:07:40;94721.42;;;19.96;95.01
5777;BME280;2914;42.668;23.346;2023-06-01T06:10:11;94727.20;;;20.10;94.16
5777;BME280;2914;42.668;23.346;2023-06-01T06:12:40;94728.91;;;20.25;92.93
5777;BME280;2914;42.668;23.346;2023-06-01T06:15:10;94724.80;;;20.46;95.60
5777;BME280;2914;42.668;23.346;2023-06-01T06:17:39;94730.54;;;20.67;94.66
5777;BME280;2914;42.668;23.346;2023-06-01T06:20:11;94723.78;;;20.72;93.92
5777;BME280;2914;42.668;23.346;2023-06-01T06:22:42;94727.77;;;20.65;91.95
5777;BME280;2914;42.668;23.346;2023-06-01T06:25:11;94733.52;;;20.62;92.68
5777;BME280;2914;42.668;23.346;2023-06-01T06:32:15;94731.33;;;20.55;93.61
5777;BME280;2914;42.668;23.346;2023-06-01T06:34:44;94728.64;;;20.55;92.56
5777;BME280;2914;42.668;23.346;2023-06-01T06:37:13;94728.56;;;20.59;93.45
5777;BME280;2914;42.668;23.346;2023-06-01T06:39:42;94732.17;;;20.62;93.94
5777;BME280;2914;42.668;23.346;2023-06-01T06:42:12;94732.93;;;20.66;94.42
5777;BME280;2914;42.668;23.346;2023-06-01T06:44:41;94734.85;;;20.79;93.11
5777;BME280;2914;42.668;23.346;2023-06-01T06:47:10;94733.02;;;20.87;92.39
5777;BME280;2914;42.668;23.346;2023-06-01T06:49:41;94728.31;;;20.95;92.30
5777;BME280;2914;42.668;23.346;2023-06-01T06:52:10;94731.41;;;21.06;90.58
5777;BME280;2914;42.668;23.346;2023-06-01T06:54:40;94730.83;;;21.24;91.58
5777;BME280;2914;42.668;23.346;2023-06-01T06:57:10;94729.30;;;21.32;89.35
5777;BME280;2914;42.668;23.346;2023-06-01T06:59:39;94726.13;;;21.39;88.62
5777;BME280;2914;42.668;23.346;2023-06-01T07:02:09;94731.08;;;21.49;89.89
5777;BME280;2914;42.668;23.346;2023-06-01T07:07:15;94734.00;;;21.74;87.36
5777;BME280;2914;42.668;23.346;2023-06-01T07:09:44;94730.08;;;21.77;87.24
5777;BME280;2914;42.668;23.346;2023-06-01T07:12:14;94730.55;;;22.10;87.69
5777;BME280;2914;42.668;23.346;2023-06-01T07:14:43;94723.70;;;22.27;85.94
5777;BME280;2914;42.668;23.346;2023-06-01T07:17:12;94722.46;;;22.30;85.29
5777;BME280;2914;42.668;23.346;2023-06-01T07:19:42;94720.88;;;22.45;85.99
5777;BME280;2914;42.668;23.346;2023-06-01T07:22:11;94722.20;;;22.51;84.84
5777;BME280;2914;42.668;23.346;2023-06-01T07:24:40;94718.27;;;22.54;84.61
5777;BME280;2914;42.668;23.346;2023-06-01T07:29:46;94720.81;;;22.65;83.14
5777;BME280;2914;42.668;23.346;2023-06-01T07:32:17;94718.22;;;22.67;84.47
5777;BME280;2914;42.668;23.346;2023-06-01T07:34:46;94715.67;;;22.57;83.87
5777;BME280;2914;42.668;23.346;2023-06-01T07:37:15;94715.44;;;22.65;85.01
5777;BME280;2914;42.668;23.346;2023-06-01T07:39:46;94715.86;;;22.62;84.27
5777;BME280;2914;42.668;23.346;2023-06-01T07:42:15;94714.62;;;22.64;83.26
5777;BME280;2914;42.668;23.346;2023-06-01T07:44:46;94709.52;;;22.65;83.06
5777;BME280;2914;42.668;23.346;2023-06-01T07:47:15;94706.53;;;22.71;83.91
5777;BME280;2914;42.668;23.346;2023-06-01T07:49:44;94712.94;;;22.70;82.70
5777;BME280;2914;42.668;23.346;2023-06-01T07:52:14;94701.63;;;22.77;85.38
5777;BME280;2914;42.668;23.346;2023-06-01T07:57:27;94703.31;;;22.72;83.62
5777;BME280;2914;42.668;23.346;2023-06-01T07:59:56;94701.64;;;22.55;81.65
5777;BME280;2914;42.668;23.346;2023-06-01T08:02:25;94699.56;;;22.50;81.02
5777;BME280;2914;42.668;23.346;2023-06-01T08:08:07;94698.52;;;22.58;82.04
5777;BME280;2914;42.668;23.346;2023-06-01T08:10:36;94697.95;;;22.65;82.15
5777;BME280;2914;42.668;23.346;2023-06-01T08:13:06;94697.06;;;22.78;81.24
5777;BME280;2914;42.668;23.346;2023-06-01T08:15:35;94700.59;;;22.78;79.02
5777;BME280;2914;42.668;23.346;2023-06-01T08:18:05;94701.03;;;22.91;79.81
5777;BME280;2914;42.668;23.346;2023-06-01T08:20:34;94698.87;;;23.07;80.12
5777;BME280;2914;42.668;23.346;2023-06-01T08:23:05;94693.58;;;23.32;78.65
5777;BME280;2914;42.668;23.346;2023-06-01T08:25:34;94693.22;;;23.37;78.06
5777;BME280;2914;42.668;23.346;2023-06-01T08:28:03;94690.67;;;23.11;76.42
5777;BME280;2914;42.668;23.346;2023-06-01T08:30:33;94687.58;;;22.91;80.53
5777;BME280;2914;42.668;23.346;2023-06-01T08:33:02;94678.18;;;23.14;79.89
5777;BME280;2914;42.668;23.346;2023-06-01T08:35:31;94678.55;;;23.33;78.35
5777;BME280;2914;42.668;23.346;2023-06-01T08:38:01;94673.25;;;23.04;75.41
5777;BME280;2914;42.668;23.346;2023-06-01T08:40:30;94668.10;;;23.18;76.25
5777;BME280;2914;42.668;23.346;2023-06-01T08:43:05;94666.48;;;23.27;76.84
5777;BME280;2914;42.668;23.346;2023-06-01T08:45:31;94670.26;;;23.35;77.19
5777;BME280;2914;42.668;23.346;2023-06-01T08:48:01;94665.37;;;23.25;78.34
5777;BME280;2914;42.668;23.346;2023-06-01T08:50:32;94663.66;;;23.31;76.34
5777;BME280;2914;42.668;23.346;2023-06-01T08:53:02;94662.72;;;23.18;76.40
5777;BME280;2914;42.668;23.346;2023-06-01T08:55:32;94657.69;;;23.29;76.66
5777;BME280;2914;42.668;23.346;2023-06-01T08:58:02;94654.45;;;23.45;79.04
5777;BME280;2914;42.668;23.346;2023-06-01T09:00:32;94645.97;;;23.67;78.56
5777;BME280;2914;42.668;23.346;2023-06-01T09:03:02;94645.47;;;23.86;77.02
5777;BME280;2914;42.668;23.346;2023-06-01T09:08:10;94646.64;;;23.97;74.43
5777;BME280;2914;42.668;23.346;2023-06-01T09:10:39;94643.31;;;23.85;73.23
5777;BME280;2914;42.668;23.346;2023-06-01T09:13:08;94644.25;;;23.72;72.88
5777;BME280;2914;42.668;23.346;2023-06-01T09:15:50;94638.56;;;23.62;74.57
5777;BME280;2914;42.668;23.346;2023-06-01T09:18:21;94638.20;;;23.68;73.88
5777;BME280;2914;42.668;23.346;2023-06-01T09:20:50;94640.35;;;23.68;72.21
5777;BME280;2914;42.668;23.346;2023-06-01T09:23:27;94636.27;;;23.66;71.53
5777;BME280;2914;42.668;23.346;2023-06-01T09:26:07;94640.99;;;23.80;71.88
5777;BME280;2914;42.668;23.346;2023-06-01T09:28:57;94644.98;;;23.96;73.64
5777;BME280;2914;42.668;23.346;2023-06-01T09:31:37;94638.70;;;23.93;72.52
5777;BME280;2914;42.668;23.346;2023-06-01T09:34:08;94632.05;;;23.95;73.37
5777;BME280;2914;42.668;23.346;2023-06-01T09:36:38;94630.19;;;24.05;72.22
5777;BME280;2914;42.668;23.346;2023-06-01T09:39:09;94626.13;;;23.96;71.51
5777;BME280;2914;42.668;23.346;2023-06-01T09:41:49;94621.36;;;23.98;72.01
5777;BME280;2914;42.668;23.346;2023-06-01T09:44:27;94617.65;;;23.83;69.48
5777;BME280;2914;42.668;23.346;2023-06-01T09:46:57;94610.67;;;23.75;69.43
5777;BME280;2914;42.668;23.346;2023-06-01T09:49:28;94611.66;;;23.71;66.63
5777;BME280;2914;42.668;23.346;2023-06-01T09:52:11;94612.08;;;23.68;64.99
5777;BME280;2914;42.668;23.346;2023-06-01T09:54:44;94606.98;;;23.60;66.54
5777;BME280;2914;42.668;23.346;2023-06-01T09:57:19;94600.34;;;23.53;63.13
5777;BME280;2914;42.668;23.346;2023-06-01T09:59:46;94602.97;;;23.69;66.02
5777;BME280;2914;42.668;23.346;2023-06-01T10:02:16;94598.86;;;23.76;62.95
5777;BME280;2914;42.668;23.346;2023-06-01T10:04:48;94598.20;;;23.71;62.31
5777;BME280;2914;42.668;23.346;2023-06-01T10:07:19;94593.18;;;23.66;62.48
5777;BME280;2914;42.668;23.346;2023-06-01T10:09:51;94594.22;;;23.65;62.58
5777;BME280;2914;42.668;23.346;2023-06-01T10:12:21;94582.53;;;23.52;64.49
5777;BME280;2914;42.668;23.346;2023-06-01T10:14:51;94580.11;;;23.35;67.65
5777;BME280;2914;42.668;23.346;2023-06-01T10:17:21;94580.70;;;23.28;69.46
5777;BME280;2914;42.668;23.346;2023-06-01T10:19:50;94581.61;;;23.15;70.32
5777;BME280;2914;42.668;23.346;2023-06-01T10:22:20;94582.13;;;22.98;67.49
5777;BME280;2914;42.668;23.346;2023-06-01T10:24:49;94584.31;;;22.83;67.58
5777;BME280;2914;42.668;23.346;2023-06-01T10:27:22;94587.13;;;22.79;66.29
5777;BME280;2914;42.668;23.346;2023-06-01T10:29:53;94586.67;;;22.73;65.68
5777;BME280;2914;42.668;23.346;2023-06-01T10:32:44;94585.83;;;22.72;64.94
5777;BME280;2914;42.668;23.346;2023-06-01T10:35:51;94587.57;;;22.76;63.94
5777;BME280;2914;42.668;23.346;2023-06-01T10:38:27;94577.27;;;22.73;63.55
5777;BME280;2914;42.668;23.346;2023-06-01T10:43:43;94582.31;;;22.56;62.52
5777;BME280;2914;42.668;23.346;2023-06-01T10:49:18;94580.93;;;22.62;63.83
5777;BME280;2914;42.668;23.346;2023-06-01T10:51:47;94580.59;;;22.52;63.96
5777;BME280;2914;42.668;23.346;2023-06-01T10:54:28;94575.19;;;22.59;63.25
5777;BME280;2914;42.668;23.346;2023-06-01T10:57:19;94573.91;;;22.45;61.67
5777;BME280;2914;42.668;23.346;2023-06-01T11:00:15;94572.03;;;22.46;62.11
5777;BME280;2914;42.668;23.346;2023-06-01T11:02:53;94568.00;;;22.46;63.80
5777;BME280;2914;42.668;23.346;2023-06-01T11:05:45;94557.51;;;22.69;63.85
5777;BME280;2914;42.668;23.346;2023-06-01T11:13:12;94545.94;;;23.10;60.93
5777;BME280;2914;42.668;23.346;2023-06-01T11:18:47;94554.90;;;23.04;60.88
5777;BME280;2914;42.668;23.346;2023-06-01T11:21:19;94554.91;;;22.88;58.25
5777;BME280;2914;42.668;23.346;2023-06-01T11:23:49;94555.58;;;22.83;58.89
5777;BME280;2914;42.668;23.346;2023-06-01T11:26:20;94551.63;;;22.70;58.32
5777;BME280;2914;42.668;23.346;2023-06-01T11:28:52;94553.48;;;22.69;59.72
5777;BME280;2914;42.668;23.346;2023-06-01T11:31:23;94554.77;;;22.67;58.59
5777;BME280;2914;42.668;23.346;2023-06-01T11:33:54;94545.89;;;22.60;58.34
5777;BME280;2914;42.668;23.346;2023-06-01T11:36:25;94550.41;;;22.50;58.09
5777;BME280;2914;42.668;23.346;2023-06-01T11:38:55;94558.47;;;22.34;59.06
5777;BME280;2914;42.668;23.346;2023-06-01T11:41:25;94565.31;;;22.23;61.53
5777;BME280;2914;42.668;23.346;2023-06-01T11:43:57;94560.64;;;21.76;62.92
5777;BME280;2914;42.668;23.346;2023-06-01T11:46:27;94570.42;;;21.30;66.37
5777;BME280;2914;42.668;23.346;2023-06-01T11:49:04;94569.08;;;20.76;67.67
5777;BME280;2914;42.668;23.346;2023-06-01T11:51:36;94565.91;;;20.39;71.31
5777;BME280;2914;42.668;23.346;2023-06-01T11:54:06;94587.98;;;19.93;72.25
5777;BME280;2914;42.668;23.346;2023-06-01T11:56:37;94580.91;;;19.61;74.84
5777;BME280;2914;42.668;23.346;2023-06-01T11:59:07;94587.22;;;19.36;75.97
5777;BME280;2914;42.668;23.346;2023-06-01T12:01:42;94592.22;;;19.28;80.51
5777;BME280;2914;42.668;23.346;2023-06-01T12:04:14;94584.55;;;19.18;86.10
5777;BME280;2914;42.668;23.346;2023-06-01T12:06:43;94593.20;;;19.09;86.70
5777;BME280;2914;42.668;23.346;2023-06-01T12:09:13;94577.41;;;19.14;87.21
5777;BME280;2914;42.668;23.346;2023-06-01T12:11:44;94574.97;;;19.30;88.32
5777;BME280;2914;42.668;23.346;2023-06-01T12:14:14;94573.08;;;19.42;86.10
5777;BME280;2914;42.668;23.346;2023-06-01T12:16:55;94572.12;;;19.56;85.73
5777;BME280;2914;42.668;23.346;2023-06-01T12:19:27;94567.98;;;19.71;85.83
5777;BME280;2914;42.668;23.346;2023-06-01T12:21:57;94568.17;;;19.80;90.46
5777;BME280;2914;42.668;23.346;2023-06-01T12:24:31;94550.08;;;19.82;92.34
5777;BME280;2914;42.668;23.346;2023-06-01T12:27:01;94544.34;;;19.92;89.06
5777;BME280;2914;42.668;23.346;2023-06-01T12:29:39;94536.69;;;19.89;89.33
5777;BME280;2914;42.668;23.346;2023-06-01T12:32:10;94534.89;;;19.96;89.73
5777;BME280;2914;42.668;23.346;2023-06-01T12:34:40;94522.95;;;20.06;91.06
5777;BME280;2914;42.668;23.346;2023-06-01T12:37:14;94513.17;;;20.02;93.44
5777;BME280;2914;42.668;23.346;2023-06-01T12:39:50;94521.50;;;19.96;93.80
5777;BME280;2914;42.668;23.346;2023-06-01T12:42:14;94520.27;;;20.06;91.98
5777;BME280;2914;42.668;23.346;2023-06-01T12:44:44;94517.05;;;19.93;90.63
5777;BME280;2914;42.668;23.346;2023-06-01T12:47:14;94507.59;;;19.97;91.54
5777;BME280;2914;42.668;23.346;2023-06-01T12:50:02;94505.94;;;19.96;92.04
5777;BME280;2914;42.668;23.346;2023-06-01T12:52:32;94501.42;;;19.96;89.51
5777;BME280;2914;42.668;23.346;2023-06-01T12:55:01;94496.17;;;20.06;87.64
5777;BME280;2914;42.668;23.346;2023-06-01T12:57:31;94500.23;;;20.19;87.33
5777;BME280;2914;42.668;23.346;2023-06-01T13:00:01;94499.14;;;20.38;87.89
5777;BME280;2914;42.668;23.346;2023-06-01T13:02:32;94500.04;;;20.27;92.11
5777;BME280;2914;42.668;23.346;2023-06-01T13:05:02;94498.98;;;20.15;94.12
5777;BME280;2914;42.668;23.346;2023-06-01T13:07:33;94493.61;;;20.08;95.86
5777;BME280;2914;42.668;23.346;2023-06-01T13:10:04;94483.02;;;20.11;95.79
5777;BME280;2914;42.668;23.346;2023-06-01T13:12:33;94480.55;;;20.09;95.72
5777;BME280;2914;42.668;23.346;2023-06-01T13:15:05;94479.66;;;20.20;97.21
5777;BME280;2914;42.668;23.346;2023-06-01T13:17:34;94474.30;;;20.20;95.93
5777;BME280;2914;42.668;23.346;2023-06-01T13:20:04;94469.64;;;20.17;94.83
5777;BME280;2914;42.668;23.346;2023-06-01T13:22:34;94457.56;;;20.04;93.90
5777;BME280;2914;42.668;23.346;2023-06-01T13:25:04;94463.02;;;20.00;84.34
5777;BME280;2914;42.668;23.346;2023-06-01T13:27:33;94470.00;;;19.94;82.80
5777;BME280;2914;42.668;23.346;2023-06-01T13:30:02;94462.73;;;19.99;79.76
5777;BME280;2914;42.668;23.346;2023-06-01T13:32:32;94455.94;;;19.79;85.08
5777;BME280;2914;42.668;23.346;2023-06-01T13:35:02;94455.50;;;19.75;83.40
5777;BME280;2914;42.668;23.346;2023-06-01T13:37:31;94461.06;;;19.74;87.46
5777;BME280;2914;42.668;23.346;2023-06-01T13:40:00;94457.25;;;19.72;87.70
5777;BME280;2914;42.668;23.346;2023-06-01T13:42:30;94453.13;;;19.70;85.53
5777;BME280;2914;42.668;23.346;2023-06-01T13:45:00;94449.64;;;19.69;88.08
5777;BME280;2914;42.668;23.346;2023-06-01T13:47:29;94443.13;;;19.61;89.96
5777;BME280;2914;42.668;23.346;2023-06-01T13:49:58;94436.34;;;19.65;90.85
5777;BME280;2914;42.668;23.346;2023-06-01T13:52:27;94446.03;;;19.73;87.22
5777;BME280;2914;42.668;23.346;2023-06-01T13:54:56;94436.94;;;19.85;86.10
5777;BME280;2914;42.668;23.346;2023-06-01T13:57:25;94427.27;;;19.90;84.26
5777;BME280;2914;42.668;23.346;2023-06-01T13:59:54;94428.32;;;20.03;81.81
5777;BME280;2914;42.668;23.346;2023-06-01T14:02:23;94426.17;;;20.02;77.81
5777;BME280;2914;42.668;23.346;2023-06-01T14:04:52;94425.45;;;20.11;78.99
5777;BME280;2914;42.668;23.346;2023-06-01T14:07:22;94430.50;;;20.16;78.33
5777;BME280;2914;42.668;23.346;2023-06-01T14:09:51;94441.83;;;20.12;80.48
5777;BME280;2914;42.668;23.346;2023-06-01T14:12:20;94441.00;;;20.18;81.72
5777;BME280;2914;42.668;23.346;2023-06-01T14:14:49;94442.34;;;20.18;80.92
5777;BME280;2914;42.668;23.346;2023-06-01T14:17:18;94446.88;;;20.17;80.98
5777;BME280;2914;42.668;23.346;2023-06-01T14:19:47;94455.02;;;20.13;81.75
5777;BME280;2914;42.668;23.346;2023-06-01T14:22:16;94462.73;;;20.12;81.26
5777;BME280;2914;42.668;23.346;2023-06-01T14:24:46;94459.94;;;20.10;82.54
5777;BME280;2914;42.668;23.346;2023-06-01T14:27:15;94465.10;;;20.05;82.22
5777;BME280;2914;42.668;23.346;2023-06-01T14:29:44;94478.39;;;20.09;83.84
5777;BME280;2914;42.668;23.346;2023-06-01T14:32:13;94473.11;;;19.98;85.70
5777;BME280;2914;42.668;23.346;2023-06-01T14:34:42;94471.70;;;20.09;85.80
5777;BME280;2914;42.668;23.346;2023-06-01T14:37:11;94465.98;;;19.94;87.10
5777;BME280;2914;42.668;23.346;2023-06-01T14:39:42;94470.13;;;19.79;87.43
5777;BME280;2914;42.668;23.346;2023-06-01T14:42:11;94465.43;;;19.57;88.59
5777;BME280;2914;42.668;23.346;2023-06-01T14:44:40;94465.63;;;19.31;89.90
5777;BME280;2914;42.668;23.346;2023-06-01T14:47:10;94461.27;;;19.41;89.68
5777;BME280;2914;42.668;23.346;2023-06-01T14:49:39;94466.70;;;19.44;89.60
5777;BME280;2914;42.668;23.346;2023-06-01T14:52:08;94461.97;;;19.39;90.07
5777;BME280;2914;42.668;23.346;2023-06-01T14:54:37;94472.45;;;19.41;91.33
5777;BME280;2914;42.668;23.346;2023-06-01T14:57:07;94461.47;;;19.46;91.55
5777;BME280;2914;42.668;23.346;2023-06-01T14:59:36;94458.71;;;19.50;90.93
5777;BME280;2914;42.668;23.346;2023-06-01T15:02:06;94472.41;;;19.52;90.36
5777;BME280;2914;42.668;23.346;2023-06-01T15:04:36;94465.20;;;19.45;91.49
5777;BME280;2914;42.668;23.346;2023-06-01T15:07:05;94457.46;;;19.46;89.11
5777;BME280;2914;42.668;23.346;2023-06-01T15:09:34;94461.36;;;19.44;90.38
5777;BME280;2914;42.668;23.346;2023-06-01T15:12:04;94462.41;;;19.43;91.30
5777;BME280;2914;42.668;23.346;2023-06-01T15:14:33;94454.17;;;19.44;90.95
5777;BME280;2914;42.668;23.346;2023-06-01T15:17:02;94460.72;;;19.59;90.16
5777;BME280;2914;42.668;23.346;2023-06-01T15:19:31;94454.96;;;19.62;90.90